createdAt,value
2017-10-24T00:00:57.964Z,100889
2017-10-24T00:03:26.303Z,100886
2017-10-24T00:05:54.605Z,100878
2017-10-24T00:08:22.924Z,100882
2017-10-24T00:10:51.216Z,100883
2017-10-24T00:13:20.329Z,100887
2017-10-24T00:15:48.633Z,100880
2017-10-24T00:18:16.920Z,100886
2017-10-24T00:20:45.221Z,100893
2017-10-24T00:23:13.609Z,100897
2017-10-24T00:25:42.710Z,100903
2017-10-24T00:28:10.990Z,100908
2017-10-24T00:30:40.060Z,100903
2017-10-24T00:33:08.847Z,100908
2017-10-24T00:35:37.123Z,100914
2017-10-24T00:38:05.406Z,100925
2017-10-24T00:40:33.741Z,100921
2017-10-24T00:43:02.021Z,100917
2017-10-24T00:45:30.263Z,100918
2017-10-24T00:47:58.614Z,100923
2017-10-24T00:50:27.010Z,100922
2017-10-24T00:52:56.065Z,100920
2017-10-24T00:55:24.559Z,100923
2017-10-24T00:57:52.870Z,100915
2017-10-24T01:00:21.151Z,100922
2017-10-24T01:02:50.239Z,100927
2017-10-24T01:05:18.550Z,100922
2017-10-24T01:07:46.888Z,100934
2017-10-24T01:10:15.203Z,100934
2017-10-24T01:12:43.588Z,100939
2017-10-24T01:15:11.955Z,100946
2017-10-24T01:17:40.256Z,100951
2017-10-24T01:20:09.075Z,100945
2017-10-24T01:22:38.177Z,100949
2017-10-24T01:25:06.516Z,100951
2017-10-24T01:27:34.782Z,100951
2017-10-24T01:30:03.055Z,100950
2017-10-24T01:32:31.760Z,100962
2017-10-24T01:35:00.076Z,100965
2017-10-24T01:37:29.105Z,100964
2017-10-24T01:39:57.530Z,100964
2017-10-24T01:42:26.564Z,100967
2017-10-24T01:44:54.996Z,100968
2017-10-24T01:47:23.356Z,100973
2017-10-24T01:49:51.630Z,100964
2017-10-24T01:52:19.929Z,100967
2017-10-24T01:54:48.246Z,100970
2017-10-24T01:57:16.498Z,100970
2017-10-24T01:59:45.528Z,100972
2017-10-24T02:02:13.836Z,100975
2017-10-24T02:04:42.132Z,100960
2017-10-24T02:07:10.378Z,100969
2017-10-24T02:09:38.680Z,100967
2017-10-24T02:12:07.701Z,100973
2017-10-24T02:14:36.917Z,100972
2017-10-24T02:17:05.239Z,100980
2017-10-24T02:19:33.540Z,100989
2017-10-24T02:22:02.580Z,100985
2017-10-24T02:24:30.858Z,100976
2017-10-24T02:26:59.206Z,100981
2017-10-24T02:29:27.491Z,100982
2017-10-24T02:31:55.768Z,100985
2017-10-24T02:34:24.111Z,100984
2017-10-24T02:36:52.442Z,100983
2017-10-24T02:39:20.729Z,100992
2017-10-24T02:41:49.152Z,100998
2017-10-24T02:44:18.216Z,100988
2017-10-24T02:46:46.460Z,100990
2017-10-24T02:49:14.828Z,100998
2017-10-24T02:51:43.099Z,101004
2017-10-24T02:54:11.377Z,100994
2017-10-24T02:56:39.738Z,100994
2017-10-24T02:59:08.038Z,100995
2017-10-24T03:01:36.318Z,101005
2017-10-24T03:04:04.723Z,101009
2017-10-24T03:06:33.012Z,101011
2017-10-24T03:09:01.313Z,101010
2017-10-24T03:11:29.736Z,101014
2017-10-24T03:13:58.035Z,101014
2017-10-24T03:16:26.324Z,101005
2017-10-24T03:18:55.420Z,101026
2017-10-24T03:21:23.715Z,101013
2017-10-24T03:23:51.996Z,101018
2017-10-24T03:26:20.312Z,101020
2017-10-24T03:28:48.587Z,101030
2017-10-24T03:31:16.885Z,101025
2017-10-24T03:33:45.227Z,101017
2017-10-24T03:36:13.502Z,101012
2017-10-24T03:38:42.016Z,101019
2017-10-24T03:41:10.350Z,101017
2017-10-24T03:43:38.636Z,101019
2017-10-24T03:46:06.909Z,101023
2017-10-24T03:48:35.268Z,101032
2017-10-24T03:51:04.335Z,101042
2017-10-24T03:53:33.440Z,101028
2017-10-24T03:56:02.596Z,101031
2017-10-24T03:58:30.893Z,101032
2017-10-24T04:00:59.220Z,101041
2017-10-24T04:03:27.619Z,101050
2017-10-24T04:05:55.898Z,101047
2017-10-24T04:08:24.150Z,101053
2017-10-24T04:10:52.891Z,101050
2017-10-24T04:13:21.190Z,101053
2017-10-24T04:15:50.219Z,101058
2017-10-24T04:18:18.945Z,101059
2017-10-24T04:20:47.222Z,101056
2017-10-24T04:23:15.712Z,101069
2017-10-24T04:25:44.055Z,101072
2017-10-24T04:28:12.419Z,101070
2017-10-24T04:30:40.678Z,101069
2017-10-24T04:33:09.352Z,101070
2017-10-24T04:35:37.634Z,101075
2017-10-24T04:38:05.947Z,101066
2017-10-24T04:40:34.287Z,101074
2017-10-24T04:43:02.593Z,101070
2017-10-24T04:45:30.907Z,101071
2017-10-24T04:47:59.595Z,101085
2017-10-24T04:50:28.618Z,101080
2017-10-24T04:52:56.906Z,101084
2017-10-24T04:55:25.241Z,101080
2017-10-24T04:57:53.580Z,101083
2017-10-24T05:00:21.882Z,101083
2017-10-24T05:02:50.216Z,101087
2017-10-24T05:05:18.536Z,101086
2017-10-24T05:07:46.922Z,101089
2017-10-24T05:10:15.236Z,101087
2017-10-24T05:12:43.505Z,101099
2017-10-24T05:15:12.155Z,101090
2017-10-24T05:17:41.454Z,101090
2017-10-24T05:20:09.693Z,101085
2017-10-24T05:22:37.978Z,101086
2017-10-24T05:25:06.333Z,101074
2017-10-24T05:27:34.594Z,101082
2017-10-24T05:30:02.859Z,101090
2017-10-24T05:32:31.196Z,101105
2017-10-24T05:34:59.493Z,101107
2017-10-24T05:37:27.775Z,101095
2017-10-24T05:39:56.103Z,101101
2017-10-24T05:42:24.391Z,101108
2017-10-24T05:44:52.630Z,101117
2017-10-24T05:47:21.515Z,101110
2017-10-24T05:49:49.772Z,101123
2017-10-24T05:52:18.784Z,101127
2017-10-24T05:54:47.086Z,101129
2017-10-24T05:57:15.454Z,101132
2017-10-24T05:59:43.692Z,101140
2017-10-24T06:02:12.762Z,101145
2017-10-24T06:04:41.138Z,101148
2017-10-24T06:07:09.455Z,101147
2017-10-24T06:09:38.459Z,101158
2017-10-24T06:12:06.806Z,101154
2017-10-24T06:14:35.924Z,101150
2017-10-24T06:17:04.155Z,101151
2017-10-24T06:19:32.527Z,101140
2017-10-24T06:22:00.802Z,101143
2017-10-24T06:24:29.072Z,101152
2017-10-24T06:26:57.357Z,101153
2017-10-24T06:29:25.760Z,101152
2017-10-24T06:31:54.795Z,101146
2017-10-24T06:34:23.044Z,101153
2017-10-24T06:36:51.430Z,101161
2017-10-24T06:39:19.736Z,101162
2017-10-24T06:41:48.072Z,101165
2017-10-24T06:44:17.516Z,101172
2017-10-24T06:46:45.753Z,101170
2017-10-24T06:49:14.783Z,101168
2017-10-24T06:51:43.095Z,101181
2017-10-24T06:54:11.396Z,101174
2017-10-24T06:56:39.679Z,101187
2017-10-24T06:59:08.096Z,101186
2017-10-24T07:01:37.237Z,101188
2017-10-24T07:04:06.264Z,101196
2017-10-24T07:06:34.569Z,101198
2017-10-24T07:09:02.881Z,101189
2017-10-24T07:11:31.930Z,101198
2017-10-24T07:14:00.232Z,101199
2017-10-24T07:16:28.619Z,101208
2017-10-24T07:18:57.696Z,101212
2017-10-24T07:21:25.943Z,101213
2017-10-24T07:23:55.072Z,101215
2017-10-24T07:26:23.399Z,101228
2017-10-24T07:28:51.653Z,101230
2017-10-24T07:31:20.763Z,101229
2017-10-24T07:33:49.014Z,101223
2017-10-24T07:36:17.271Z,101226
2017-10-24T07:38:45.638Z,101232
2017-10-24T07:41:13.916Z,101226
2017-10-24T07:43:43.011Z,101229
2017-10-24T07:46:11.396Z,101227
2017-10-24T07:48:39.646Z,101224
2017-10-24T07:51:07.907Z,101217
2017-10-24T07:53:36.241Z,101228
2017-10-24T07:56:04.487Z,101229
2017-10-24T07:58:32.764Z,101227
2017-10-24T08:01:01.097Z,101238
2017-10-24T08:03:29.356Z,101229
2017-10-24T08:05:58.359Z,101232
2017-10-24T08:08:27.486Z,101238
2017-10-24T08:10:56.507Z,101236
2017-10-24T08:13:24.782Z,101231
2017-10-24T08:15:53.100Z,101231
2017-10-24T08:18:22.143Z,101238
2017-10-24T08:20:50.405Z,101242
2017-10-24T08:23:18.737Z,101237
2017-10-24T08:25:47.769Z,101240
2017-10-24T08:28:16.048Z,101242
2017-10-24T08:30:44.377Z,101238
2017-10-24T08:33:12.652Z,101243
2017-10-24T08:35:40.963Z,101244
2017-10-24T08:38:09.291Z,101247
2017-10-24T08:40:37.545Z,101246
2017-10-24T08:43:05.855Z,101245
2017-10-24T08:45:34.340Z,101239
2017-10-24T08:48:03.355Z,101244
2017-10-24T08:50:31.622Z,101239
2017-10-24T08:52:59.928Z,101244
2017-10-24T08:55:28.162Z,101250
2017-10-24T08:57:57.279Z,101251
2017-10-24T09:00:26.351Z,101256
2017-10-24T09:02:54.917Z,101248
2017-10-24T09:05:23.968Z,101249
2017-10-24T09:07:52.254Z,101254
2017-10-24T09:14:18.103Z,101256
2017-10-24T09:16:50.201Z,101248
2017-10-24T09:22:33.961Z,101262
2017-10-24T09:25:02.275Z,101260
2017-10-24T09:27:30.590Z,101265
2017-10-24T09:29:58.872Z,101262
2017-10-24T09:32:31.618Z,101262
2017-10-24T09:34:59.868Z,101268
2017-10-24T09:37:28.888Z,101268
2017-10-24T09:39:57.230Z,101275
2017-10-24T09:42:26.353Z,101273
2017-10-24T09:44:54.636Z,101273
2017-10-24T09:47:22.952Z,101271
2017-10-24T09:49:57.936Z,101277
2017-10-24T09:52:26.276Z,101275
2017-10-24T09:54:54.578Z,101272
2017-10-24T09:57:23.635Z,101265
2017-10-24T09:59:51.945Z,101269
2017-10-24T10:02:20.261Z,101271
2017-10-24T10:04:48.886Z,101267
2017-10-24T10:07:17.200Z,101267
2017-10-24T10:09:45.465Z,101263
2017-10-24T10:12:13.718Z,101258
2017-10-24T10:14:42.809Z,101258
2017-10-24T10:17:11.054Z,101256
2017-10-24T10:19:39.329Z,101255
2017-10-24T10:22:12.027Z,101256
2017-10-24T10:24:40.322Z,101258
2017-10-24T10:27:09.375Z,101251
2017-10-24T10:29:37.739Z,101258
2017-10-24T10:32:06.050Z,101252
2017-10-24T10:34:34.340Z,101258
2017-10-24T10:37:03.415Z,101260
2017-10-24T10:39:31.675Z,101253
2017-10-24T10:41:59.979Z,101252
2017-10-24T10:44:28.279Z,101256
2017-10-24T10:46:57.323Z,101264
2017-10-24T10:49:25.600Z,101266
2017-10-24T10:51:53.889Z,101258
2017-10-24T10:54:22.179Z,101266
2017-10-24T10:56:50.505Z,101266
2017-10-24T10:59:18.896Z,101272
2017-10-24T11:01:47.189Z,101270
2017-10-24T11:04:15.536Z,101264
2017-10-24T11:06:43.885Z,101255
2017-10-24T11:09:12.973Z,101251
2017-10-24T11:11:42.026Z,101254
2017-10-24T11:14:10.295Z,101256
2017-10-24T11:16:38.525Z,101250
2017-10-24T11:19:06.879Z,101256
2017-10-24T11:21:35.180Z,101262
2017-10-24T11:24:03.479Z,101244
2017-10-24T11:26:31.849Z,101252
2017-10-24T11:29:00.146Z,101252
2017-10-24T11:31:28.420Z,101251
2017-10-24T11:33:57.543Z,101248
2017-10-24T11:36:25.832Z,101244
2017-10-24T11:38:54.096Z,101246
2017-10-24T11:41:22.427Z,101234
2017-10-24T11:43:50.692Z,101238
2017-10-24T11:46:18.949Z,101230
2017-10-24T11:48:48.054Z,101231
2017-10-24T11:51:17.097Z,101227
2017-10-24T11:53:45.344Z,101219
2017-10-24T11:56:13.636Z,101218
2017-10-24T11:58:41.903Z,101222
2017-10-24T12:01:10.231Z,101219
2017-10-24T12:03:38.537Z,101211
2017-10-24T12:06:07.567Z,101206
2017-10-24T12:08:35.900Z,101211
2017-10-24T12:11:04.949Z,101213
2017-10-24T12:13:33.249Z,101213
2017-10-24T12:16:01.597Z,101207
2017-10-24T12:18:29.886Z,101210
2017-10-24T12:20:58.203Z,101213
2017-10-24T12:23:27.310Z,101225
2017-10-24T12:25:55.559Z,101219
2017-10-24T12:28:24.579Z,101219
2017-10-24T12:30:52.896Z,101222
2017-10-24T12:33:21.169Z,101225
2017-10-24T12:35:49.468Z,101235
2017-10-24T12:38:17.783Z,101227
2017-10-24T12:40:46.049Z,101228
2017-10-24T12:43:15.089Z,101230
2017-10-24T12:45:43.430Z,101232
2017-10-24T12:48:11.685Z,101222
2017-10-24T12:50:46.502Z,101224
2017-10-24T12:53:15.530Z,101226
2017-10-24T12:55:43.831Z,101222
2017-10-24T13:11:42.642Z,101212
2017-10-24T13:14:11.739Z,101211
2017-10-24T13:16:40.514Z,101201
2017-10-24T13:19:08.793Z,101209
2017-10-24T13:21:37.111Z,101205
2017-10-24T13:24:05.452Z,101209
2017-10-24T13:26:33.730Z,101204
2017-10-24T13:29:02.142Z,101210
2017-10-24T13:31:30.427Z,101215
2017-10-24T13:33:58.723Z,101208
2017-10-24T13:36:27.547Z,101219
2017-10-24T13:38:57.014Z,101233
2017-10-24T13:41:26.091Z,101225
2017-10-24T13:43:54.376Z,101228
2017-10-24T13:46:22.624Z,101232
2017-10-24T13:48:52.164Z,101239
2017-10-24T13:51:20.404Z,101241
2017-10-24T13:53:49.483Z,101243
2017-10-24T13:56:17.881Z,101248
2017-10-24T13:58:46.231Z,101246
2017-10-24T14:01:14.521Z,101241
2017-10-24T14:03:44.151Z,101249
2017-10-24T14:06:17.920Z,101246
2017-10-24T14:08:51.708Z,101246
2017-10-24T14:11:19.996Z,101252
2017-10-24T14:13:48.250Z,101259
2017-10-24T14:16:16.598Z,101253
2017-10-24T14:18:44.911Z,101253
2017-10-24T14:21:13.176Z,101259
2017-10-24T14:23:41.485Z,101261
2017-10-24T14:26:09.924Z,101255
2017-10-24T14:28:38.200Z,101260
2017-10-24T14:31:06.497Z,101261
2017-10-24T14:33:35.111Z,101264
2017-10-24T14:36:04.161Z,101251
2017-10-24T14:38:32.414Z,101253
2017-10-24T14:41:00.773Z,101255
2017-10-24T14:43:29.047Z,101261
2017-10-24T14:45:57.356Z,101257
2017-10-24T14:48:26.900Z,101261
2017-10-24T14:50:55.247Z,101254
2017-10-24T14:53:23.513Z,101248
2017-10-24T14:55:51.853Z,101244
2017-10-24T14:58:20.119Z,101242
2017-10-24T15:00:49.155Z,101250
2017-10-24T15:03:17.442Z,101249
2017-10-24T15:05:45.729Z,101252
2017-10-24T15:08:14.001Z,101251
2017-10-24T15:10:42.407Z,101253
2017-10-24T15:13:11.452Z,101246
2017-10-24T15:15:39.745Z,101248
2017-10-24T15:18:08.156Z,101252
2017-10-24T15:20:36.411Z,101251
2017-10-24T15:23:04.711Z,101256
2017-10-24T15:25:33.002Z,101256
2017-10-24T15:28:02.014Z,101261
2017-10-24T15:30:30.273Z,101264
2017-10-24T15:32:58.603Z,101265
2017-10-24T15:35:27.086Z,101260
2017-10-24T15:37:55.327Z,101264
2017-10-24T15:40:23.615Z,101269
2017-10-24T15:42:51.905Z,101269
2017-10-24T15:45:20.163Z,101278
2017-10-24T15:47:48.475Z,101277
2017-10-24T15:50:17.569Z,101279
2017-10-24T15:52:46.492Z,101287
2017-10-24T15:55:14.857Z,101276
2017-10-24T15:57:43.920Z,101281
2017-10-24T16:00:12.189Z,101275
2017-10-24T16:02:40.550Z,101284
2017-10-24T16:05:08.911Z,101291
2017-10-24T16:07:37.200Z,101287
2017-10-24T16:10:05.539Z,101298
2017-10-24T16:12:34.582Z,101289
2017-10-24T16:15:02.902Z,101296
2017-10-24T16:17:31.989Z,101300
2017-10-24T16:20:00.290Z,101293
2017-10-24T16:22:29.446Z,101280
2017-10-24T16:24:57.747Z,101280
2017-10-24T16:27:26.784Z,101271
2017-10-24T16:29:55.120Z,101279
2017-10-24T16:32:24.302Z,101271
2017-10-24T16:34:53.689Z,101280
2017-10-24T16:37:22.945Z,101287
2017-10-24T16:39:51.345Z,101268
2017-10-24T16:42:19.621Z,101280
2017-10-24T16:44:48.039Z,101273
2017-10-24T16:47:17.315Z,101270
2017-10-24T16:49:45.698Z,101268
2017-10-24T16:52:13.956Z,101264
2017-10-24T16:54:42.248Z,101263
2017-10-24T16:57:10.589Z,101261
2017-10-24T16:59:38.887Z,101264
2017-10-24T17:02:07.172Z,101260
2017-10-24T17:04:36.038Z,101261
2017-10-24T17:07:04.299Z,101253
2017-10-24T17:09:32.571Z,101251
2017-10-24T17:12:03.034Z,101259
2017-10-24T17:14:32.295Z,101250
2017-10-24T17:17:00.577Z,101262
2017-10-24T17:19:28.987Z,101257
2017-10-24T17:21:57.452Z,101258
2017-10-24T17:24:25.716Z,101264
2017-10-24T17:26:54.379Z,101273
2017-10-24T17:29:23.396Z,101277
2017-10-24T17:31:51.685Z,101284
2017-10-24T17:34:20.839Z,101290
2017-10-24T17:36:49.901Z,101291
2017-10-24T17:39:18.214Z,101280
2017-10-24T17:41:47.333Z,101289
2017-10-24T17:44:15.628Z,101286
2017-10-24T17:46:43.991Z,101285
2017-10-24T17:49:12.250Z,101277
2017-10-24T17:51:41.291Z,101275
2017-10-24T17:54:12.000Z,101277
2017-10-24T17:56:40.277Z,101281
2017-10-24T17:59:08.589Z,101280
2017-10-24T18:01:38.097Z,101287
2017-10-24T18:04:06.425Z,101282
2017-10-24T18:06:34.698Z,101290
2017-10-24T18:09:03.036Z,101284
2017-10-24T18:11:32.481Z,101271
2017-10-24T18:14:00.863Z,101278
2017-10-24T18:16:29.262Z,101274
2017-10-24T18:18:57.532Z,101281
2017-10-24T18:21:25.875Z,101266
2017-10-24T18:23:54.457Z,101274
2017-10-24T18:26:25.049Z,101264
2017-10-24T18:28:53.414Z,101272
2017-10-24T18:31:21.724Z,101262
2017-10-24T18:33:51.844Z,101265
2017-10-24T18:36:20.212Z,101267
2017-10-24T18:38:48.549Z,101262
2017-10-24T18:41:16.846Z,101253
2017-10-24T18:43:45.243Z,101254
2017-10-24T18:46:13.619Z,101254
2017-10-24T18:48:41.966Z,101248
2017-10-24T18:51:10.277Z,101238
2017-10-24T18:53:38.656Z,101240
2017-10-24T18:56:06.969Z,101253
2017-10-24T18:58:35.240Z,101252
2017-10-24T19:01:03.964Z,101252
2017-10-24T19:03:32.216Z,101243
2017-10-24T19:06:00.546Z,101258
2017-10-24T19:08:29.641Z,101243
2017-10-24T19:10:57.915Z,101243
2017-10-24T19:13:26.941Z,101237
2017-10-24T19:15:55.612Z,101239
2017-10-24T19:18:24.628Z,101227
2017-10-24T19:20:52.940Z,101214
2017-10-24T19:23:21.265Z,101215
2017-10-24T19:25:50.302Z,101223
2017-10-24T19:28:18.619Z,101232
2017-10-24T19:30:47.748Z,101244
2017-10-24T19:33:16.001Z,101222
2017-10-24T19:35:44.315Z,101219
2017-10-24T19:38:14.428Z,101213
2017-10-24T19:40:42.715Z,101208
2017-10-24T19:43:11.024Z,101205
2017-10-24T19:45:40.086Z,101207
2017-10-24T19:48:08.535Z,101205
2017-10-24T19:50:39.198Z,101213
2017-10-24T19:53:07.644Z,101207
2017-10-24T19:55:36.873Z,101211
2017-10-24T19:58:05.368Z,101219
2017-10-24T20:00:33.968Z,101221
2017-10-24T20:03:02.501Z,101231
2017-10-24T20:05:31.149Z,101232
2017-10-24T20:07:59.686Z,101216
2017-10-24T20:10:28.178Z,101211
2017-10-24T20:12:56.608Z,101204
2017-10-24T20:15:25.661Z,101197
2017-10-24T20:17:54.072Z,101198
2017-10-24T20:20:22.506Z,101200
2017-10-24T20:22:50.932Z,101194
2017-10-24T20:25:19.986Z,101196
2017-10-24T20:27:48.303Z,101173
2017-10-24T20:30:17.436Z,101182
2017-10-24T20:32:45.767Z,101177
2017-10-24T20:35:14.134Z,101175
2017-10-24T20:37:43.672Z,101178
2017-10-24T20:40:12.726Z,101181
2017-10-24T20:42:41.171Z,101177
2017-10-24T20:45:09.629Z,101171
2017-10-24T20:47:37.983Z,101182
2017-10-24T20:50:07.057Z,101162
2017-10-24T20:52:36.367Z,101172
2017-10-24T20:55:04.652Z,101165
2017-10-24T20:57:32.947Z,101161
2017-10-24T21:00:01.305Z,101166
2017-10-24T21:02:29.625Z,101165
2017-10-24T21:04:58.000Z,101176
2017-10-24T21:07:26.261Z,101186
2017-10-24T21:09:54.623Z,101199
2017-10-24T21:12:23.776Z,101202
2017-10-24T21:14:52.321Z,101208
2017-10-24T21:17:20.715Z,101197
2017-10-24T21:19:49.067Z,101194
2017-10-24T21:22:17.461Z,101188
2017-10-24T21:24:45.779Z,101196
2017-10-24T21:27:14.235Z,101183
2017-10-24T21:29:42.567Z,101177
2017-10-24T21:32:13.813Z,101170
2017-10-24T21:34:42.836Z,101172
2017-10-24T21:37:11.866Z,101174
2017-10-24T21:39:40.245Z,101177
2017-10-24T21:42:08.506Z,101175
2017-10-24T21:44:36.808Z,101176
2017-10-24T21:47:05.176Z,101173
2017-10-24T21:49:33.454Z,101165
2017-10-24T21:52:01.723Z,101165
2017-10-24T21:54:30.096Z,101154
2017-10-24T21:56:58.349Z,101160
2017-10-24T21:59:27.419Z,101163
2017-10-24T22:01:56.577Z,101160
2017-10-24T22:04:24.857Z,101157
2017-10-24T22:06:53.189Z,101150
2017-10-24T22:09:21.524Z,101147
2017-10-24T22:11:50.660Z,101145
2017-10-24T22:14:18.951Z,101134
2017-10-24T22:16:47.274Z,101129
2017-10-24T22:19:15.601Z,101140
2017-10-24T22:21:43.920Z,101142
2017-10-24T22:24:12.969Z,101133
2017-10-24T22:26:42.174Z,101140
2017-10-24T22:29:10.461Z,101136
2017-10-24T22:31:38.771Z,101134
2017-10-24T22:34:07.940Z,101129
2017-10-24T22:36:36.224Z,101123
2017-10-24T22:39:05.290Z,101134
2017-10-24T22:41:33.693Z,101118
2017-10-24T22:44:02.000Z,101119
2017-10-24T22:46:31.064Z,101108
2017-10-24T22:48:59.411Z,101113
2017-10-24T22:51:27.707Z,101108
2017-10-24T22:53:56.012Z,101103
2017-10-24T22:56:24.375Z,101107
2017-10-24T22:58:53.478Z,101104
2017-10-24T23:01:21.732Z,101114
2017-10-24T23:03:50.054Z,101110
2017-10-24T23:06:19.108Z,101116
2017-10-24T23:08:47.361Z,101110
2017-10-24T23:11:15.710Z,101093
2017-10-24T23:13:44.731Z,101074
2017-10-24T23:16:12.998Z,101070
2017-10-24T23:18:41.323Z,101083
2017-10-24T23:21:09.588Z,101079
2017-10-24T23:23:37.878Z,101083
2017-10-24T23:26:06.239Z,101079
2017-10-24T23:28:34.506Z,101075
2017-10-24T23:31:02.866Z,101077
2017-10-24T23:33:31.261Z,101079
2017-10-24T23:35:59.552Z,101093
2017-10-24T23:38:28.644Z,101095
2017-10-24T23:40:57.009Z,101088
2017-10-24T23:43:25.333Z,101085
2017-10-24T23:45:54.342Z,101072
2017-10-24T23:48:22.669Z,101076
2017-10-24T23:50:50.927Z,101082
2017-10-24T23:53:19.174Z,101088
2017-10-24T23:55:47.915Z,101076
2017-10-24T23:58:16.188Z,101074
